sensor_id;sensor_type;location;lat;lon;timestamp;P1;durP1;ratioP1;P2;durP2;ratioP2
4325;SDS011;58429;49.826;10.880;2023-03-22T00:00:47;17.4;;;7.7;;
4325;SDS011;58429;49.826;10.880;2023-03-22T00:01:47;17.4;;;7.7;;
4325;SDS011;58429;49.826;10.880;2023-03-22T00:02:47;17.4;;;7.7;;
4325;SDS011;58429;49.826;10.880;2023-03-22T00:03:47;29;;;8;;
4325;SDS011;58429;49.826;10.880;2023-03-22T00:04:47;29;;;8;;
4325;SDS011;58429;49.826;10.880;2023-03-22T00:05:47;29;;;8;;
4325;SDS011;58429;49.826;10.880;2023-03-22T00:06:47;13.1;;;6.3;;
4325;SDS011;58429;49.826;10.880;2023-03-22T00:07:47;13.1;;;6.3;;
4325;SDS011;58429;49.826;10.880;2023-03-22T00:08:47;13.1;;;6.3;;
4325;SDS011;58429;49.826;10.880;2023-03-22T00:09:47;15.3;;;6.2;;
4325;SDS011;58429;49.826;10.880;2023-03-22T00:10:47;15.3;;;6.2;;
4325;SDS011;58429;49.826;10.880;2023-03-22T00:11:47;15.3;;;6.2;;
4325;SDS011;58429;49.826;10.880;2023-03-22T00:12:47;15.1;;;6;;
4325;SDS011;58429;49.826;10.880;2023-03-22T00:13:47;15.1;;;6;;
4325;SDS011;58429;49.826;10.880;2023-03-22T00:14:47;15.1;;;6;;
4325;SDS011;58429;49.826;10.880;2023-03-22T00:15:47;11.9;;;6.1;;
4325;SDS011;58429;49.826;10.880;2023-03-22T00:16:47;11.9;;;6.1;;
4325;SDS011;58429;49.826;10.880;2023-03-22T00:17:47;11.9;;;6.1;;
4325;SDS011;58429;49.826;10.880;2023-03-22T00:18:47;11.9;;;6.5;;
4325;SDS011;58429;49.826;10.880;2023-03-22T00:19:47;11.9;;;6.5;;
4325;SDS011;58429;49.826;10.880;2023-03-22T00:20:47;11.9;;;6.5;;
4325;SDS011;58429;49.826;10.880;2023-03-22T00:21:47;11.8;;;6.4;;
4325;SDS011;58429;49.826;10.880;2023-03-22T00:22:47;11.8;;;6.4;;
4325;SDS011;58429;49.826;10.880;2023-03-22T00:23:47;11.8;;;6.4;;
4325;SDS011;58429;49.826;10.880;2023-03-22T00:24:47;11.6;;;6.6;;
4325;SDS011;58429;49.826;10.880;2023-03-22T00:25:47;11.6;;;6.6;;
4325;SDS011;58429;49.826;10.880;2023-03-22T00:26:47;11.6;;;6.6;;
4325;SDS011;58429;49.826;10.880;2023-03-22T00:27:47;16.3;;;7.2;;
4325;SDS011;58429;49.826;10.880;2023-03-22T00:28:47;16.3;;;7.2;;
4325;SDS011;58429;49.826;10.880;2023-03-22T00:29:47;16.3;;;7.2;;
4325;SDS011;58429;49.826;10.880;2023-03-22T00:30:51;11.3;;;6.5;;
4325;SDS011;58429;49.826;10.880;2023-03-22T00:31:47;11.3;;;6.5;;
4325;SDS011;58429;49.826;10.880;2023-03-22T00:32:47;11.3;;;6.5;;
4325;SDS011;58429;49.826;10.880;2023-03-22T00:33:47;11;;;6.5;;
4325;SDS011;58429;49.826;10.880;2023-03-22T00:34:47;11;;;6.5;;
4325;SDS011;58429;49.826;10.880;2023-03-22T00:35:47;11;;;6.5;;
4325;SDS011;58429;49.826;10.880;2023-03-22T00:36:47;13;;;7.5;;
4325;SDS011;58429;49.826;10.880;2023-03-22T00:37:47;13;;;7.5;;
4325;SDS011;58429;49.826;10.880;2023-03-22T00:38:47;13;;;7.5;;
4325;SDS011;58429;49.826;10.880;2023-03-22T00:39:47;12.9;;;6.9;;
4325;SDS011;58429;49.826;10.880;2023-03-22T00:40:47;12.9;;;6.9;;
4325;SDS011;58429;49.826;10.880;2023-03-22T00:41:47;12.9;;;6.9;;
4325;SDS011;58429;49.826;10.880;2023-03-22T00:42:47;12.3;;;6.6;;
4325;SDS011;58429;49.826;10.880;2023-03-22T00:43:47;12.3;;;6.6;;
4325;SDS011;58429;49.826;10.880;2023-03-22T00:44:47;12.3;;;6.6;;
4325;SDS011;58429;49.826;10.880;2023-03-22T00:45:47;13.9;;;7.1;;
4325;SDS011;58429;49.826;10.880;2023-03-22T00:46:47;13.9;;;7.1;;
4325;SDS011;58429;49.826;10.880;2023-03-22T00:47:47;13.9;;;7.1;;
4325;SDS011;58429;49.826;10.880;2023-03-22T00:48:47;14.6;;;7.7;;
4325;SDS011;58429;49.826;10.880;2023-03-22T00:49:47;14.6;;;7.7;;
4325;SDS011;58429;49.826;10.880;2023-03-22T00:50:47;14.6;;;7.7;;
4325;SDS011;58429;49.826;10.880;2023-03-22T00:51:47;12.4;;;6.7;;
4325;SDS011;58429;49.826;10.880;2023-03-22T00:52:47;12.4;;;6.7;;
4325;SDS011;58429;49.826;10.880;2023-03-22T00:53:47;12.4;;;6.7;;
4325;SDS011;58429;49.826;10.880;2023-03-22T00:54:47;14.2;;;7.4;;
4325;SDS011;58429;49.826;10.880;2023-03-22T00:55:47;14.2;;;7.4;;
4325;SDS011;58429;49.826;10.880;2023-03-22T00:56:47;14.2;;;7.4;;
4325;SDS011;58429;49.826;10.880;2023-03-22T00:57:47;12.8;;;6.7;;
4325;SDS011;58429;49.826;10.880;2023-03-22T00:58:47;12.8;;;6.7;;
4325;SDS011;58429;49.826;10.880;2023-03-22T00:59:47;12.8;;;6.7;;
4325;SDS011;58429;49.826;10.880;2023-03-22T01:00:47;13.9;;;8.3;;
4325;SDS011;58429;49.826;10.880;2023-03-22T01:01:47;13.9;;;8.3;;
4325;SDS011;58429;49.826;10.880;2023-03-22T01:02:47;13.9;;;8.3;;
4325;SDS011;58429;49.826;10.880;2023-03-22T01:03:47;12.5;;;7.1;;
4325;SDS011;58429;49.826;10.880;2023-03-22T01:04:47;12.5;;;7.1;;
4325;SDS011;58429;49.826;10.880;2023-03-22T01:05:47;12.5;;;7.1;;
4325;SDS011;58429;49.826;10.880;2023-03-22T01:06:47;13.1;;;7.3;;
4325;SDS011;58429;49.826;10.880;2023-03-22T01:07:47;13.1;;;7.3;;
4325;SDS011;58429;49.826;10.880;2023-03-22T01:08:47;13.1;;;7.3;;
4325;SDS011;58429;49.826;10.880;2023-03-22T01:09:47;14.3;;;8.4;;
4325;SDS011;58429;49.826;10.880;2023-03-22T01:10:47;14.3;;;8.4;;
4325;SDS011;58429;49.826;10.880;2023-03-22T01:11:47;14.3;;;8.4;;
4325;SDS011;58429;49.826;10.880;2023-03-22T01:12:47;12.3;;;6.6;;
4325;SDS011;58429;49.826;10.880;2023-03-22T01:13:47;12.3;;;6.6;;
4325;SDS011;58429;49.826;10.880;2023-03-22T01:14:47;12.3;;;6.6;;
4325;SDS011;58429;49.826;10.880;2023-03-22T01:15:48;12.3;;;6.6;;
4325;SDS011;58429;49.826;10.880;2023-03-22T01:16:47;11.8;;;6.6;;
4325;SDS011;58429;49.826;10.880;2023-03-22T01:17:47;11.8;;;6.6;;
4325;SDS011;58429;49.826;10.880;2023-03-22T01:18:47;11.8;;;6.6;;
4325;SDS011;58429;49.826;10.880;2023-03-22T01:19:47;10.3;;;5.7;;
4325;SDS011;58429;49.826;10.880;2023-03-22T01:20:47;10.3;;;5.7;;
4325;SDS011;58429;49.826;10.880;2023-03-22T01:21:47;10.3;;;5.7;;
4325;SDS011;58429;49.826;10.880;2023-03-22T01:22:47;13.8;;;7.6;;
4325;SDS011;58429;49.826;10.880;2023-03-22T01:23:47;13.8;;;7.6;;
4325;SDS011;58429;49.826;10.880;2023-03-22T01:24:47;13.8;;;7.6;;
4325;SDS011;58429;49.826;10.880;2023-03-22T01:25:47;15.3;;;7.1;;
4325;SDS011;58429;49.826;10.880;2023-03-22T01:26:47;15.3;;;7.1;;
4325;SDS011;58429;49.826;10.880;2023-03-22T01:27:47;15.3;;;7.1;;
4325;SDS011;58429;49.826;10.880;2023-03-22T01:28:47;36.1;;;8;;
4325;SDS011;58429;49.826;10.880;2023-03-22T01:29:47;36.1;;;8;;
4325;SDS011;58429;49.826;10.880;2023-03-22T01:30:47;36.1;;;8;;
4325;SDS011;58429;49.826;10.880;2023-03-22T01:31:47;40.9;;;8.6;;
4325;SDS011;58429;49.826;10.880;2023-03-22T01:32:47;40.9;;;8.6;;
4325;SDS011;58429;49.826;10.880;2023-03-22T01:33:47;40.9;;;8.6;;
4325;SDS011;58429;49.826;10.880;2023-03-22T01:34:47;135.8;;;13;;
4325;SDS011;58429;49.826;10.880;2023-03-22T01:35:47;135.8;;;13;;
4325;SDS011;58429;49.826;10.880;2023-03-22T01:36:47;135.8;;;13;;
4325;SDS011;58429;49.826;10.880;2023-03-22T01:37:47;50.5;;;7.9;;
4325;SDS011;58429;49.826;10.880;2023-03-22T01:38:47;50.5;;;7.9;;
4325;SDS011;58429;49.826;10.880;2023-03-22T01:39:47;50.5;;;7.9;;
4325;SDS011;58429;49.826;10.880;2023-03-22T01:40:47;57.2;;;7.6;;
4325;SDS011;58429;49.826;10.880;2023-03-22T01:41:47;57.2;;;7.6;;
4325;SDS011;58429;49.826;10.880;2023-03-22T01:42:47;57.2;;;7.6;;
4325;SDS011;58429;49.826;10.880;2023-03-22T01:44:05;56.5;;;7.4;;
4325;SDS011;58429;49.826;10.880;2023-03-22T01:45:47;56.5;;;7.4;;
4325;SDS011;58429;49.826;10.880;2023-03-22T01:45:52;56.5;;;7.4;;
4325;SDS011;58429;49.826;10.880;2023-03-22T01:46:47;63;;;8.3;;
4325;SDS011;58429;49.826;10.880;2023-03-22T01:47:47;63;;;8.3;;
4325;SDS011;58429;49.826;10.880;2023-03-22T01:48:47;63;;;8.3;;
4325;SDS011;58429;49.826;10.880;2023-03-22T01:49:47;13.2;;;5.4;;
4325;SDS011;58429;49.826;10.880;2023-03-22T01:50:49;13.2;;;5.4;;
4325;SDS011;58429;49.826;10.880;2023-03-22T01:51:47;13.2;;;5.4;;
4325;SDS011;58429;49.826;10.880;2023-03-22T01:52:47;11.6;;;5.2;;
4325;SDS011;58429;49.826;10.880;2023-03-22T01:53:47;11.6;;;5.2;;
4325;SDS011;58429;49.826;10.880;2023-03-22T01:54:47;11.6;;;5.2;;
4325;SDS011;58429;49.826;10.880;2023-03-22T01:55:47;9.5;;;4.8;;
4325;SDS011;58429;49.826;10.880;2023-03-22T01:56:47;9.5;;;4.8;;
4325;SDS011;58429;49.826;10.880;2023-03-22T01:57:47;9.5;;;4.8;;
4325;SDS011;58429;49.826;10.880;2023-03-22T01:58:47;28.7;;;6.2;;
4325;SDS011;58429;49.826;10.880;2023-03-22T01:59:47;28.7;;;6.2;;
4325;SDS011;58429;49.826;10.880;2023-03-22T02:00:47;28.7;;;6.2;;
4325;SDS011;58429;49.826;10.880;2023-03-22T02:01:47;51.7;;;6.7;;
4325;SDS011;58429;49.826;10.880;2023-03-22T02:02:48;51.7;;;6.7;;
4325;SDS011;58429;49.826;10.880;2023-03-22T02:03:48;51.7;;;6.7;;
4325;SDS011;58429;49.826;10.880;2023-03-22T02:04:47;78.6;;;8.3;;
4325;SDS011;58429;49.826;10.880;2023-03-22T02:05:47;78.6;;;8.3;;
4325;SDS011;58429;49.826;10.880;2023-03-22T02:06:47;78.6;;;8.3;;
4325;SDS011;58429;49.826;10.880;2023-03-22T02:07:47;58.4;;;7.9;;
4325;SDS011;58429;49.826;10.880;2023-03-22T02:08:47;58.4;;;7.9;;
4325;SDS011;58429;49.826;10.880;2023-03-22T02:09:47;58.4;;;7.9;;
4325;SDS011;58429;49.826;10.880;2023-03-22T02:10:47;18.4;;;5.8;;
4325;SDS011;58429;49.826;10.880;2023-03-22T02:11:48;18.4;;;5.8;;
4325;SDS011;58429;49.826;10.880;2023-03-22T02:12:51;18.4;;;5.8;;
4325;SDS011;58429;49.826;10.880;2023-03-22T02:13:52;64.4;;;7.9;;
4325;SDS011;58429;49.826;10.880;2023-03-22T02:14:52;64.4;;;7.9;;
4325;SDS011;58429;49.826;10.880;2023-03-22T02:15:47;64.4;;;7.9;;
4325;SDS011;58429;49.826;10.880;2023-03-22T02:16:49;14.3;;;5.3;;
4325;SDS011;58429;49.826;10.880;2023-03-22T02:17:49;14.3;;;5.3;;
4325;SDS011;58429;49.826;10.880;2023-03-22T02:18:51;14.3;;;5.3;;
4325;SDS011;58429;49.826;10.880;2023-03-22T02:19:58;24.9;;;6.3;;
4325;SDS011;58429;49.826;10.880;2023-03-22T02:20:54;24.9;;;6.3;;
4325;SDS011;58429;49.826;10.880;2023-03-22T02:21:58;24.9;;;6.3;;
4325;SDS011;58429;49.826;10.880;2023-03-22T02:22:56;11.3;;;5.1;;
4325;SDS011;58429;49.826;10.880;2023-03-22T02:23:56;11.3;;;5.1;;
4325;SDS011;58429;49.826;10.880;2023-03-22T02:25:23;11.3;;;5.1;;
4325;SDS011;58429;49.826;10.880;2023-03-22T02:25:59;10;;;5;;
4325;SDS011;58429;49.826;10.880;2023-03-22T02:26:53;10;;;5;;
4325;SDS011;58429;49.826;10.880;2023-03-22T02:27:51;10;;;5;;
4325;SDS011;58429;49.826;10.880;2023-03-22T02:28:48;22.2;;;6.6;;
4325;SDS011;58429;49.826;10.880;2023-03-22T02:29:47;22.2;;;6.6;;
4325;SDS011;58429;49.826;10.880;2023-03-22T02:30:53;22.2;;;6.6;;
4325;SDS011;58429;49.826;10.880;2023-03-22T02:31:51;33.8;;;6.5;;
4325;SDS011;58429;49.826;10.880;2023-03-22T02:32:52;33.8;;;6.5;;
4325;SDS011;58429;49.826;10.880;2023-03-22T02:34:07;33.8;;;6.5;;
4325;SDS011;58429;49.826;10.880;2023-03-22T02:35:50;26.4;;;6.6;;
4325;SDS011;58429;49.826;10.880;2023-03-22T02:35:50;26.4;;;6.6;;
4325;SDS011;58429;49.826;10.880;2023-03-22T02:36:53;26.4;;;6.6;;
4325;SDS011;58429;49.826;10.880;2023-03-22T02:37:59;11.8;;;5.1;;
4325;SDS011;58429;49.826;10.880;2023-03-22T02:38:58;11.8;;;5.1;;
4325;SDS011;58429;49.826;10.880;2023-03-22T02:39:47;11.8;;;5.1;;
4325;SDS011;58429;49.826;10.880;2023-03-22T02:40:48;33.8;;;7.5;;
4325;SDS011;58429;49.826;10.880;2023-03-22T02:41:52;33.8;;;7.5;;
4325;SDS011;58429;49.826;10.880;2023-03-22T02:42:50;33.8;;;7.5;;
4325;SDS011;58429;49.826;10.880;2023-03-22T02:43:50;19.4;;;6.3;;
4325;SDS011;58429;49.826;10.880;2023-03-22T02:44:49;19.4;;;6.3;;
4325;SDS011;58429;49.826;10.880;2023-03-22T02:45:48;19.4;;;6.3;;
4325;SDS011;58429;49.826;10.880;2023-03-22T02:46:48;18.7;;;5.7;;
4325;SDS011;58429;49.826;10.880;2023-03-22T02:47:50;18.7;;;5.7;;
4325;SDS011;58429;49.826;10.880;2023-03-22T02:48:49;18.7;;;5.7;;
4325;SDS011;58429;49.826;10.880;2023-03-22T02:49:49;9.2;;;4.8;;
4325;SDS011;58429;49.826;10.880;2023-03-22T02:50:48;9.2;;;4.8;;
4325;SDS011;58429;49.826;10.880;2023-03-22T02:51:47;9.2;;;4.8;;
4325;SDS011;58429;49.826;10.880;2023-03-22T02:52:48;8.6;;;4.5;;
4325;SDS011;58429;49.826;10.880;2023-03-22T02:53:48;8.6;;;4.5;;
4325;SDS011;58429;49.826;10.880;2023-03-22T02:54:49;8.6;;;4.5;;
4325;SDS011;58429;49.826;10.880;2023-03-22T02:55:47;9;;;4.2;;
4325;SDS011;58429;49.826;10.880;2023-03-22T02:56:48;9;;;4.2;;
4325;SDS011;58429;49.826;10.880;2023-03-22T02:57:47;9;;;4.2;;
4325;SDS011;58429;49.826;10.880;2023-03-22T02:58:48;8.4;;;4.3;;
4325;SDS011;58429;49.826;10.880;2023-03-22T02:59:47;8.4;;;4.3;;
4325;SDS011;58429;49.826;10.880;2023-03-22T03:00:48;8.4;;;4.3;;
4325;SDS011;58429;49.826;10.880;2023-03-22T03:01:48;11.3;;;5.4;;
4325;SDS011;58429;49.826;10.880;2023-03-22T03:02:47;11.3;;;5.4;;
4325;SDS011;58429;49.826;10.880;2023-03-22T03:03:47;11.3;;;5.4;;
4325;SDS011;58429;49.826;10.880;2023-03-22T03:04:48;13.9;;;7.2;;
4325;SDS011;58429;49.826;10.880;2023-03-22T03:05:48;13.9;;;7.2;;
4325;SDS011;58429;49.826;10.880;2023-03-22T03:06:47;13.9;;;7.2;;
4325;SDS011;58429;49.826;10.880;2023-03-22T03:07:48;13.9;;;7.2;;
4325;SDS011;58429;49.826;10.880;2023-03-22T03:08:47;12.9;;;6.4;;
4325;SDS011;58429;49.826;10.880;2023-03-22T03:09:47;12.9;;;6.4;;
4325;SDS011;58429;49.826;10.880;2023-03-22T03:10:47;12.9;;;6.4;;
4325;SDS011;58429;49.826;10.880;2023-03-22T03:11:48;10.3;;;5;;
4325;SDS011;58429;49.826;10.880;2023-03-22T03:12:47;10.3;;;5;;
4325;SDS011;58429;49.826;10.880;2023-03-22T03:13:47;10.3;;;5;;
4325;SDS011;58429;49.826;10.880;2023-03-22T03:14:47;9.6;;;5.1;;
4325;SDS011;58429;49.826;10.880;2023-03-22T03:15:49;9.6;;;5.1;;
4325;SDS011;58429;49.826;10.880;2023-03-22T03:16:48;9.6;;;5.1;;
4325;SDS011;58429;49.826;10.880;2023-03-22T03:17:52;8.4;;;4.2;;
4325;SDS011;58429;49.826;10.880;2023-03-22T03:18:49;8.4;;;4.2;;
4325;SDS011;58429;49.826;10.880;2023-03-22T03:19:49;8.4;;;4.2;;
4325;SDS011;58429;49.826;10.880;2023-03-22T03:20:49;8.7;;;4.6;;
4325;SDS011;58429;49.826;10.880;2023-03-22T03:21:48;8.7;;;4.6;;
4325;SDS011;58429;49.826;10.880;2023-03-22T03:22:49;8.7;;;4.6;;
4325;SDS011;58429;49.826;10.880;2023-03-22T03:23:48;8.2;;;4.4;;
4325;SDS011;58429;49.826;10.880;2023-03-22T03:24:48;8.2;;;4.4;;
4325;SDS011;58429;49.826;10.880;2023-03-22T03:25:48;8.2;;;4.4;;
4325;SDS011;58429;49.826;10.880;2023-03-22T03:26:50;8.9;;;4.8;;
4325;SDS011;58429;49.826;10.880;2023-03-22T03:27:48;8.9;;;4.8;;
4325;SDS011;58429;49.826;10.880;2023-03-22T03:28:48;8.9;;;4.8;;
4325;SDS011;58429;49.826;10.880;2023-03-22T03:29:47;9.5;;;5.3;;
4325;SDS011;58429;49.826;10.880;2023-03-22T03:30:48;9.5;;;5.3;;
4325;SDS011;58429;49.826;10.880;2023-03-22T03:31:49;9.5;;;5.3;;
4325;SDS011;58429;49.826;10.880;2023-03-22T03:32:48;9.3;;;5;;
4325;SDS011;58429;49.826;10.880;2023-03-22T03:33:50;9.3;;;5;;
4325;SDS011;58429;49.826;10.880;2023-03-22T03:34:48;9.3;;;5;;
4325;SDS011;58429;49.826;10.880;2023-03-22T03:35:48;9.2;;;4.8;;
4325;SDS011;58429;49.826;10.880;2023-03-22T03:36:48;9.2;;;4.8;;
4325;SDS011;58429;49.826;10.880;2023-03-22T03:37:48;9.2;;;4.8;;
4325;SDS011;58429;49.826;10.880;2023-03-22T03:38:48;9.3;;;4.8;;
4325;SDS011;58429;49.826;10.880;2023-03-22T03:39:50;9.3;;;4.8;;
4325;SDS011;58429;49.826;10.880;2023-03-22T03:40:48;9.3;;;4.8;;
4325;SDS011;58429;49.826;10.880;2023-03-22T03:41:47;11.5;;;6.2;;
4325;SDS011;58429;49.826;10.880;2023-03-22T03:42:48;11.5;;;6.2;;
4325;SDS011;58429;49.826;10.880;2023-03-22T03:43:47;11.5;;;6.2;;
4325;SDS011;58429;49.826;10.880;2023-03-22T03:44:47;8.9;;;4.6;;
4325;SDS011;58429;49.826;10.880;2023-03-22T03:45:47;8.9;;;4.6;;
4325;SDS011;58429;49.826;10.880;2023-03-22T03:46:47;8.9;;;4.6;;
4325;SDS011;58429;49.826;10.880;2023-03-22T03:47:48;8.6;;;4.6;;
4325;SDS011;58429;49.826;10.880;2023-03-22T03:48:48;8.6;;;4.6;;
4325;SDS011;58429;49.826;10.880;2023-03-22T03:49:47;8.6;;;4.6;;
4325;SDS011;58429;49.826;10.880;2023-03-22T03:50:48;11.5;;;5.9;;
4325;SDS011;58429;49.826;10.880;2023-03-22T03:51:48;11.5;;;5.9;;
4325;SDS011;58429;49.826;10.880;2023-03-22T03:52:47;11.5;;;5.9;;
4325;SDS011;58429;49.826;10.880;2023-03-22T03:53:47;8.8;;;4.7;;
4325;SDS011;58429;49.826;10.880;2023-03-22T03:54:47;8.8;;;4.7;;
4325;SDS011;58429;49.826;10.880;2023-03-22T03:55:47;8.8;;;4.7;;
4325;SDS011;58429;49.826;10.880;2023-03-22T03:56:47;9.3;;;4.9;;
4325;SDS011;58429;49.826;10.880;2023-03-22T03:57:47;9.3;;;4.9;;
4325;SDS011;58429;49.826;10.880;2023-03-22T03:58:47;9.3;;;4.9;;
4325;SDS011;58429;49.826;10.880;2023-03-22T03:59:47;8.6;;;4.4;;
4325;SDS011;58429;49.826;10.880;2023-03-22T04:00:47;8.6;;;4.4;;
4325;SDS011;58429;49.826;10.880;2023-03-22T04:01:47;8.6;;;4.4;;
4325;SDS011;58429;49.826;10.880;2023-03-22T04:02:47;8;;;4.4;;
4325;SDS011;58429;49.826;10.880;2023-03-22T04:03:47;8;;;4.4;;
4325;SDS011;58429;49.826;10.880;2023-03-22T04:04:47;8;;;4.4;;
4325;SDS011;58429;49.826;10.880;2023-03-22T04:05:47;7.6;;;3.7;;
4325;SDS011;58429;49.826;10.880;2023-03-22T04:06:47;7.6;;;3.7;;
4325;SDS011;58429;49.826;10.880;2023-03-22T04:07:47;7.6;;;3.7;;
4325;SDS011;58429;49.826;10.880;2023-03-22T04:08:47;7.6;;;3.8;;
4325;SDS011;58429;49.826;10.880;2023-03-22T04:09:47;7.6;;;3.8;;
4325;SDS011;58429;49.826;10.880;2023-03-22T04:10:48;7.6;;;3.8;;
4325;SDS011;58429;49.826;10.880;2023-03-22T04:11:47;7.9;;;3.6;;
4325;SDS011;58429;49.826;10.880;2023-03-22T04:12:47;7.9;;;3.6;;
4325;SDS011;58429;49.826;10.880;2023-03-22T04:13:47;7.9;;;3.6;;
4325;SDS011;58429;49.826;10.880;2023-03-22T04:14:47;7.2;;;3.6;;
4325;SDS011;58429;49.826;10.880;2023-03-22T04:15:50;7.2;;;3.6;;
4325;SDS011;58429;49.826;10.880;2023-03-22T04:16:47;7.2;;;3.6;;
4325;SDS011;58429;49.826;10.880;2023-03-22T04:17:47;7.2;;;3.3;;
4325;SDS011;58429;49.826;10.880;2023-03-22T04:18:47;7.2;;;3.3;;
4325;SDS011;58429;49.826;10.880;2023-03-22T04:19:47;7.2;;;3.3;;
4325;SDS011;58429;49.826;10.880;2023-03-22T04:20:47;7;;;3.5;;
4325;SDS011;58429;49.826;10.880;2023-03-22T04:21:47;7;;;3.5;;
4325;SDS011;58429;49.826;10.880;2023-03-22T04:22:47;7;;;3.5;;
4325;SDS011;58429;49.826;10.880;2023-03-22T04:23:47;8.6;;;4.6;;
4325;SDS011;58429;49.826;10.880;2023-03-22T04:24:47;8.6;;;4.6;;
4325;SDS011;58429;49.826;10.880;2023-03-22T04:25:47;8.6;;;4.6;;
4325;SDS011;58429;49.826;10.880;2023-03-22T04:26:47;8.4;;;4.3;;
4325;SDS011;58429;49.826;10.880;2023-03-22T04:27:47;8.4;;;4.3;;
4325;SDS011;58429;49.826;10.880;2023-03-22T04:28:47;8.4;;;4.3;;
4325;SDS011;58429;49.826;10.880;2023-03-22T04:29:47;9;;;4.6;;
4325;SDS011;58429;49.826;10.880;2023-03-22T04:30:47;9;;;4.6;;
4325;SDS011;58429;49.826;10.880;2023-03-22T04:31:47;9;;;4.6;;
4325;SDS011;58429;49.826;10.880;2023-03-22T04:32:47;8.7;;;5.2;;
4325;SDS011;58429;49.826;10.880;2023-03-22T04:33:47;8.7;;;5.2;;
4325;SDS011;58429;49.826;10.880;2023-03-22T04:34:47;8.7;;;5.2;;
4325;SDS011;58429;49.826;10.880;2023-03-22T04:35:47;8.5;;;4.1;;
4325;SDS011;58429;49.826;10.880;2023-03-22T04:36:47;8.5;;;4.1;;
4325;SDS011;58429;49.826;10.880;2023-03-22T04:37:47;8.5;;;4.1;;
4325;SDS011;58429;49.826;10.880;2023-03-22T04:38:47;8.4;;;4;;
4325;SDS011;58429;49.826;10.880;2023-03-22T04:39:47;8.4;;;4;;
4325;SDS011;58429;49.826;10.880;2023-03-22T04:40:47;8.4;;;4;;
4325;SDS011;58429;49.826;10.880;2023-03-22T04:41:47;8.1;;;3.8;;
4325;SDS011;58429;49.826;10.880;2023-03-22T04:42:47;8.1;;;3.8;;
4325;SDS011;58429;49.826;10.880;2023-03-22T04:43:47;8.1;;;3.8;;
4325;SDS011;58429;49.826;10.880;2023-03-22T04:44:47;10.1;;;4.2;;
4325;SDS011;58429;49.826;10.880;2023-03-22T04:45:47;10.1;;;4.2;;
4325;SDS011;58429;49.826;10.880;2023-03-22T04:46:47;10.1;;;4.2;;
4325;SDS011;58429;49.826;10.880;2023-03-22T04:47:47;7.7;;;3.7;;
4325;SDS011;58429;49.826;10.880;2023-03-22T04:48:47;7.7;;;3.7;;
4325;SDS011;58429;49.826;10.880;2023-03-22T04:49:47;7.7;;;3.7;;
4325;SDS011;58429;49.826;10.880;2023-03-22T04:50:47;7.8;;;3.8;;
4325;SDS011;58429;49.826;10.880;2023-03-22T04:51:47;7.8;;;3.8;;
4325;SDS011;58429;49.826;10.880;2023-03-22T04:52:47;7.8;;;3.8;;
4325;SDS011;58429;49.826;10.880;2023-03-22T04:53:47;7.5;;;3.8;;
4325;SDS011;58429;49.826;10.880;2023-03-22T04:54:47;7.5;;;3.8;;
4325;SDS011;58429;49.826;10.880;2023-03-22T04:55:47;7.5;;;3.8;;
4325;SDS011;58429;49.826;10.880;2023-03-22T04:56:47;7.5;;;3.8;;
4325;SDS011;58429;49.826;10.880;2023-03-22T04:57:47;8.6;;;4.1;;
4325;SDS011;58429;49.826;10.880;2023-03-22T04:58:47;8.6;;;4.1;;
4325;SDS011;58429;49.826;10.880;2023-03-22T04:59:47;8.6;;;4.1;;
4325;SDS011;58429;49.826;10.880;2023-03-22T05:00:47;8.4;;;4.1;;
4325;SDS011;58429;49.826;10.880;2023-03-22T05:01:47;8.4;;;4.1;;
4325;SDS011;58429;49.826;10.880;2023-03-22T05:02:47;8.4;;;4.1;;
4325;SDS011;58429;49.826;10.880;2023-03-22T05:03:47;8.9;;;4.5;;
4325;SDS011;58429;49.826;10.880;2023-03-22T05:04:47;8.9;;;4.5;;
4325;SDS011;58429;49.826;10.880;2023-03-22T05:05:49;8.9;;;4.5;;
4325;SDS011;58429;49.826;10.880;2023-03-22T05:06:47;8.9;;;4.7;;
4325;SDS011;58429;49.826;10.880;2023-03-22T05:07:47;8.9;;;4.7;;
4325;SDS011;58429;49.826;10.880;2023-03-22T05:08:47;8.9;;;4.7;;
4325;SDS011;58429;49.826;10.880;2023-03-22T05:09:47;9.8;;;4.9;;
4325;SDS011;58429;49.826;10.880;2023-03-22T05:10:47;9.8;;;4.9;;
4325;SDS011;58429;49.826;10.880;2023-03-22T05:11:47;9.8;;;4.9;;
4325;SDS011;58429;49.826;10.880;2023-03-22T05:12:47;9;;;4.5;;
4325;SDS011;58429;49.826;10.880;2023-03-22T05:13:47;9;;;4.5;;
4325;SDS011;58429;49.826;10.880;2023-03-22T05:14:47;9;;;4.5;;
4325;SDS011;58429;49.826;10.880;2023-03-22T05:15:47;8.7;;;4.2;;
4325;SDS011;58429;49.826;10.880;2023-03-22T05:16:47;8.7;;;4.2;;
4325;SDS011;58429;49.826;10.880;2023-03-22T05:17:47;8.7;;;4.2;;
4325;SDS011;58429;49.826;10.880;2023-03-22T05:18:47;9.1;;;4.3;;
4325;SDS011;58429;49.826;10.880;2023-03-22T05:19:47;9.1;;;4.3;;
4325;SDS011;58429;49.826;10.880;2023-03-22T05:20:47;9.1;;;4.3;;
4325;SDS011;58429;49.826;10.880;2023-03-22T05:21:47;8.2;;;4;;
4325;SDS011;58429;49.826;10.880;2023-03-22T05:22:47;8.2;;;4;;
4325;SDS011;58429;49.826;10.880;2023-03-22T05:23:47;8.2;;;4;;
4325;SDS011;58429;49.826;10.880;2023-03-22T05:24:47;7.5;;;3.9;;
4325;SDS011;58429;49.826;10.880;2023-03-22T05:25:48;7.5;;;3.9;;
4325;SDS011;58429;49.826;10.880;2023-03-22T05:26:47;7.5;;;3.9;;
4325;SDS011;58429;49.826;10.880;2023-03-22T05:27:47;8.8;;;4.3;;
4325;SDS011;58429;49.826;10.880;2023-03-22T05:28:47;8.8;;;4.3;;
4325;SDS011;58429;49.826;10.880;2023-03-22T05:29:47;8.8;;;4.3;;
4325;SDS011;58429;49.826;10.880;2023-03-22T05:30:47;8.4;;;4;;
4325;SDS011;58429;49.826;10.880;2023-03-22T05:31:47;8.4;;;4;;
4325;SDS011;58429;49.826;10.880;2023-03-22T05:32:47;8.4;;;4;;
4325;SDS011;58429;49.826;10.880;2023-03-22T05:33:47;8.5;;;4.2;;
4325;SDS011;58429;49.826;10.880;2023-03-22T05:34:47;8.5;;;4.2;;
4325;SDS011;58429;49.826;10.880;2023-03-22T05:35:47;8.5;;;4.2;;
4325;SDS011;58429;49.826;10.880;2023-03-22T05:36:47;7.9;;;4.4;;
4325;SDS011;58429;49.826;10.880;2023-03-22T05:37:47;7.9;;;4.4;;
4325;SDS011;58429;49.826;10.880;2023-03-22T05:38:47;7.9;;;4.4;;
4325;SDS011;58429;49.826;10.880;2023-03-22T05:39:47;13.4;;;6.7;;
4325;SDS011;58429;49.826;10.880;2023-03-22T05:40:47;13.4;;;6.7;;
4325;SDS011;58429;49.826;10.880;2023-03-22T05:41:47;13.4;;;6.7;;
4325;SDS011;58429;49.826;10.880;2023-03-22T05:42:47;10;;;5.4;;
4325;SDS011;58429;49.826;10.880;2023-03-22T05:43:47;10;;;5.4;;
4325;SDS011;58429;49.826;10.880;2023-03-22T05:44:47;10;;;5.4;;
4325;SDS011;58429;49.826;10.880;2023-03-22T05:45:47;10.8;;;4.4;;
4325;SDS011;58429;49.826;10.880;2023-03-22T05:46:47;10.8;;;4.4;;
4325;SDS011;58429;49.826;10.880;2023-03-22T05:47:48;10.8;;;4.4;;
4325;SDS011;58429;49.826;10.880;2023-03-22T05:48:47;9;;;4.3;;
4325;SDS011;58429;49.826;10.880;2023-03-22T05:49:47;9;;;4.3;;
4325;SDS011;58429;49.826;10.880;2023-03-22T05:50:47;9;;;4.3;;
4325;SDS011;58429;49.826;10.880;2023-03-22T05:51:47;9.4;;;4.4;;
4325;SDS011;58429;49.826;10.880;2023-03-22T05:52:48;9.4;;;4.4;;
4325;SDS011;58429;49.826;10.880;2023-03-22T05:53:47;9.4;;;4.4;;
4325;SDS011;58429;49.826;10.880;2023-03-22T05:54:47;9;;;4.6;;
4325;SDS011;58429;49.826;10.880;2023-03-22T05:55:47;9;;;4.6;;
4325;SDS011;58429;49.826;10.880;2023-03-22T05:56:47;9;;;4.6;;
4325;SDS011;58429;49.826;10.880;2023-03-22T05:57:47;9.2;;;4.7;;
4325;SDS011;58429;49.826;10.880;2023-03-22T05:58:47;9.2;;;4.7;;
4325;SDS011;58429;49.826;10.880;2023-03-22T05:59:47;9.2;;;4.7;;
4325;SDS011;58429;49.826;10.880;2023-03-22T06:00:47;10.9;;;5.7;;
4325;SDS011;58429;49.826;10.880;2023-03-22T06:01:47;10.9;;;5.7;;
4325;SDS011;58429;49.826;10.880;2023-03-22T06:02:48;10.9;;;5.7;;
4325;SDS011;58429;49.826;10.880;2023-03-22T06:03:47;9.4;;;4.8;;
4325;SDS011;58429;49.826;10.880;2023-03-22T06:04:47;9.4;;;4.8;;
4325;SDS011;58429;49.826;10.880;2023-03-22T06:05:47;9.4;;;4.8;;
4325;SDS011;58429;49.826;10.880;2023-03-22T06:06:48;9.9;;;4.7;;
4325;SDS011;58429;49.826;10.880;2023-03-22T06:07:47;9.9;;;4.7;;
4325;SDS011;58429;49.826;10.880;2023-03-22T06:08:47;9.9;;;4.7;;
4325;SDS011;58429;49.826;10.880;2023-03-22T06:09:47;8.9;;;4.7;;
4325;SDS011;58429;49.826;10.880;2023-03-22T06:10:48;8.9;;;4.7;;
4325;SDS011;58429;49.826;10.880;2023-03-22T06:11:47;8.9;;;4.7;;